Time;durP1;ratioP1;P1;durP2;ratioP2;P2;SDS_P1;SDS_P2;PMS_P1;PMS_P2;Temp;Humidity;BMP_temperature;BMP_pressure;BME280_temperature;BME280_humidity;BME280_pressure;Samples;Min_cycle;Max_cycle;Signal;HPM_P1;HPM_P2
2023/02/08 00:01:25;;;;;;;12.80;11.13;;;0.50;72.60;;;;;;5033978;28;20227;-89
2023/02/08 00:03:51;;;;;;;15.60;11.70;;;0.40;72.20;;;;;;5044843;28;20248;-86
2023/02/08 00:06:17;;;;;;;12.20;10.77;;;0.50;72.00;;;;;;5037770;28;20196;-86
2023/02/08 00:08:43;;;;;;;13.23;11.30;;;0.50;71.10;;;;;;5035838;28;20220;-87
2023/02/08 00:11:09;;;;;;;12.67;11.07;;;0.40;71.90;;;;;;5042701;28;20220;-86
2023/02/08 00:13:36;;;;;;;13.87;11.83;;;0.40;72.40;;;;;;5044684;28;20183;-87
2023/02/08 00:16:02;;;;;;;15.03;11.50;;;0.50;72.10;;;;;;5044181;28;20169;-87
2023/02/08 00:18:28;;;;;;;13.30;11.57;;;0.40;71.10;;;;;;5046047;28;20185;-87
2023/02/08 00:20:56;;;;;;;14.10;11.50;;;0.40;70.90;;;;;;5043215;28;20213;-87
2023/02/08 00:23:22;;;;;;;14.47;11.80;;;0.30;71.50;;;;;;5027319;28;20577;-86
2023/02/08 00:25:48;;;;;;;13.93;11.10;;;0.20;72.10;;;;;;5022673;28;20236;-86
2023/02/08 00:28:15;;;;;;;13.67;11.90;;;0.20;73.70;;;;;;5022256;28;20648;-87
2023/02/08 00:30:42;;;;;;;13.30;11.37;;;0.30;73.10;;;;;;5021156;28;20277;-86
2023/02/08 00:33:08;;;;;;;15.10;11.27;;;0.30;73.10;;;;;;5020465;28;20264;-86
2023/02/08 00:35:34;;;;;;;13.37;10.77;;;0.30;72.80;;;;;;5026755;28;20177;-88
2023/02/08 00:38:00;;;;;;;13.87;11.23;;;0.30;72.90;;;;;;5031588;28;20181;-88
2023/02/08 00:40:26;;;;;;;12.27;10.83;;;0.30;72.40;;;;;;5043014;28;20207;-87
2023/02/08 00:42:52;;;;;;;12.03;10.47;;;0.30;72.80;;;;;;5041668;28;20690;-87
2023/02/08 00:45:18;;;;;;;13.47;11.03;;;0.30;71.20;;;;;;5040423;28;20196;-88
2023/02/08 00:47:44;;;;;;;13.87;11.50;;;0.20;72.00;;;;;;5040317;28;20177;-86
2023/02/08 00:50:10;;;;;;;17.97;11.43;;;0.20;71.30;;;;;;5038210;28;20200;-86
2023/02/08 00:52:36;;;;;;;13.70;11.90;;;0.20;71.30;;;;;;5038176;28;20211;-86
2023/02/08 00:55:01;;;;;;;15.10;11.47;;;0.20;73.30;;;;;;5038629;28;20262;-86
2023/02/08 00:57:27;;;;;;;13.43;12.03;;;0.20;71.60;;;;;;5035076;28;20188;-86
2023/02/08 00:59:53;;;;;;;13.03;11.27;;;0.20;71.80;;;;;;5030144;28;20224;-87
2023/02/08 01:02:18;;;;;;;14.30;11.53;;;0.20;72.10;;;;;;5034907;28;20196;-86
2023/02/08 01:04:44;;;;;;;14.23;11.57;;;0.20;72.00;;;;;;5044786;28;20188;-89
2023/02/08 01:07:09;;;;;;;14.53;10.97;;;0.20;71.00;;;;;;5054748;28;20235;-89
2023/02/08 01:09:36;;;;;;;11.97;10.50;;;0.10;71.10;;;;;;5053821;28;20228;-88
2023/02/08 01:12:02;;;;;;;14.67;10.97;;;0.20;73.20;;;;;;5053349;28;20200;-88
2023/02/08 01:14:28;;;;;;;13.17;11.00;;;0.10;72.80;;;;;;5051894;28;20602;-86
2023/02/08 01:16:53;;;;;;;14.97;11.60;;;0.20;71.30;;;;;;5043444;28;20357;-87
2023/02/08 01:19:19;;;;;;;12.17;10.97;;;0.10;71.30;;;;;;5045886;28;20216;-86
2023/02/08 01:21:45;;;;;;;12.87;10.70;;;0.00;70.90;;;;;;5042945;28;20193;-88
2023/02/08 01:24:11;;;;;;;12.20;10.87;;;0.00;71.20;;;;;;5041920;28;20185;-88
2023/02/08 01:26:37;;;;;;;13.60;11.50;;;-0.10;72.30;;;;;;5041730;28;20784;-87
2023/02/08 01:29:03;;;;;;;12.60;11.30;;;-0.20;72.60;;;;;;5041526;28;20188;-88
2023/02/08 01:31:32;;;;;;;15.97;12.10;;;-0.30;72.30;;;;;;5042922;28;20280;-86
2023/02/08 01:33:59;;;;;;;14.73;11.87;;;-0.40;72.30;;;;;;5044118;28;20281;-87
2023/02/08 01:36:26;;;;;;;17.13;12.27;;;-0.40;75.30;;;;;;5032923;28;20210;-86
2023/02/08 01:38:52;;;;;;;18.40;14.40;;;-0.40;74.50;;;;;;5020600;28;20180;-86
2023/02/08 01:41:24;;;;;;;17.77;13.03;;;-0.40;73.60;;;;;;5022166;28;20601;-87
2023/02/08 01:44:01;;;;;;;18.13;13.53;;;-0.40;73.00;;;;;;5022511;28;20165;-86
2023/02/08 01:46:28;;;;;;;15.57;12.77;;;-0.40;74.40;;;;;;5022183;28;20176;-86
2023/02/08 01:48:57;;;;;;;15.87;12.10;;;-0.50;73.10;;;;;;5024497;28;20182;-89
2023/02/08 01:51:28;;;;;;;16.47;12.10;;;-0.60;74.70;;;;;;5026763;28;20438;-87
2023/02/08 01:53:56;;;;;;;14.23;11.93;;;-0.50;74.20;;;;;;5043845;28;20164;-87
2023/02/08 01:56:36;;;;;;;16.33;11.50;;;-0.50;74.60;;;;;;5037756;28;20190;-88
2023/02/08 01:59:05;;;;;;;17.37;11.87;;;-0.60;73.90;;;;;;5036076;28;20256;-86
2023/02/08 02:01:31;;;;;;;13.77;11.60;;;-0.50;75.80;;;;;;5034454;28;20208;-86
2023/02/08 02:04:01;;;;;;;15.23;11.50;;;-0.40;76.10;;;;;;5044484;28;20193;-87
2023/02/08 02:06:32;;;;;;;14.67;11.90;;;-0.30;76.80;;;;;;5027603;28;20181;-86
2023/02/08 02:09:11;;;;;;;14.57;12.20;;;-0.30;75.60;;;;;;5032371;28;20192;-87
2023/02/08 02:11:37;;;;;;;14.60;11.83;;;-0.20;75.00;;;;;;5041411;28;20200;-86
2023/02/08 02:14:04;;;;;;;14.47;12.33;;;0.00;75.80;;;;;;5040949;28;20253;-87
2023/02/08 02:16:29;;;;;;;13.93;12.03;;;0.00;74.60;;;;;;5041345;28;20196;-87
2023/02/08 02:18:55;;;;;;;14.87;12.43;;;0.00;71.80;;;;;;5039871;28;20550;-83
2023/02/08 02:21:49;;;;;;;14.87;11.77;;;-0.10;74.80;;;;;;5034659;28;20213;-87
2023/02/08 02:24:35;;;;;;;14.53;12.40;;;-0.10;72.10;;;;;;5029036;28;20397;-89
2023/02/08 02:27:27;;;;;;;18.07;12.40;;;-0.20;72.40;;;;;;5010168;28;20197;-88
2023/02/08 02:30:17;;;;;;;15.27;12.60;;;-0.20;72.90;;;;;;5010361;28;20216;-88
2023/02/08 02:32:52;;;;;;;12.57;10.90;;;-0.30;71.10;;;;;;5008718;28;20178;-87
2023/02/08 02:35:41;;;;;;;15.93;12.63;;;-0.40;72.50;;;;;;5009239;28;20177;-87
2023/02/08 02:38:10;;;;;;;15.90;12.00;;;-0.50;73.40;;;;;;5030391;28;20260;-88
2023/02/08 02:41:05;;;;;;;14.63;11.93;;;-0.50;73.00;;;;;;5028193;28;20205;-87
2023/02/08 02:43:54;;;;;;;12.20;10.93;;;-0.70;72.40;;;;;;5029140;28;20331;-87
2023/02/08 02:46:39;;;;;;;14.83;11.73;;;-0.90;74.50;;;;;;5029287;28;20184;-87
2023/02/08 02:49:31;;;;;;;13.40;11.20;;;-0.90;74.40;;;;;;5035962;28;20353;-87
2023/02/08 02:52:03;;;;;;;14.67;11.57;;;-1.00;74.20;;;;;;5046257;28;20219;-87
2023/02/08 02:54:39;;;;;;;15.90;12.03;;;-1.10;75.00;;;;;;5032601;28;20291;-87
2023/02/08 02:57:08;;;;;;;16.03;11.60;;;-1.10;74.90;;;;;;5020686;28;20208;-87
2023/02/08 02:59:37;;;;;;;15.47;11.00;;;-1.00;76.50;;;;;;5034131;28;20173;-88
2023/02/08 03:02:03;;;;;;;16.53;12.27;;;-0.90;77.90;;;;;;5032148;28;20283;-87
2023/02/08 03:04:32;;;;;;;14.37;11.77;;;-0.80;76.10;;;;;;5029940;28;20177;-88
2023/02/08 03:07:20;;;;;;;14.10;11.97;;;-0.80;73.50;;;;;;5011334;28;20660;-86
2023/02/08 03:10:07;;;;;;;15.30;11.53;;;-0.70;76.40;;;;;;5002227;28;20226;-87
2023/02/08 03:13:24;;;;;;;13.20;11.60;;;-0.80;72.70;;;;;;5011164;28;20184;-87
2023/02/08 03:16:01;;;;;;;14.80;11.17;;;-0.90;74.40;;;;;;4977876;28;20190;-87
2023/02/08 03:18:42;;;;;;;17.37;12.00;;;-1.10;74.20;;;;;;5025996;28;20252;-87
2023/02/08 03:21:33;;;;;;;14.53;11.90;;;-1.30;74.30;;;;;;5009765;28;20198;-86
2023/02/08 03:24:17;;;;;;;13.63;11.20;;;-1.40;75.90;;;;;;5009944;28;20181;-88
2023/02/08 03:26:54;;;;;;;15.70;11.33;;;-1.40;76.00;;;;;;5009443;28;20575;-87
2023/02/08 03:29:29;;;;;;;13.67;11.23;;;-1.50;76.60;;;;;;5010103;28;20616;-88
2023/02/08 03:32:07;;;;;;;16.40;12.03;;;-1.50;76.70;;;;;;5009721;28;20205;-86
2023/02/08 03:35:03;;;;;;;14.77;10.83;;;-1.50;76.10;;;;;;5016629;28;20180;-86
2023/02/08 03:37:35;;;;;;;16.60;11.27;;;-1.50;77.30;;;;;;5029110;28;20188;-87
2023/02/08 03:40:32;;;;;;;15.27;11.80;;;-1.40;77.20;;;;;;5029568;28;20246;-87
2023/02/08 03:43:02;;;;;;;12.20;10.87;;;-1.40;76.50;;;;;;5022347;28;20833;-87
2023/02/08 03:45:37;;;;;;;15.37;11.23;;;-1.40;78.30;;;;;;5029496;28;20602;-88
2023/02/08 03:48:08;;;;;;;15.70;11.57;;;-1.30;76.50;;;;;;5029990;28;20176;-86
2023/02/08 03:50:38;;;;;;;16.00;11.33;;;-1.20;76.40;;;;;;5030466;28;20212;-87
2023/02/08 03:53:05;;;;;;;15.43;11.90;;;-1.20;75.40;;;;;;5021722;28;20559;-86
2023/02/08 03:55:34;;;;;;;14.00;12.27;;;-1.20;75.20;;;;;;5010389;28;20186;-88
2023/02/08 03:58:20;;;;;;;13.23;10.23;;;-1.30;75.10;;;;;;5029805;28;20320;-86
2023/02/08 04:00:54;;;;;;;13.97;11.03;;;-1.20;78.40;;;;;;5031176;28;20220;-87
2023/02/08 04:03:26;;;;;;;13.67;11.30;;;-1.00;78.20;;;;;;5030759;28;20200;-86
2023/02/08 04:05:52;;;;;;;16.00;11.77;;;-0.90;76.30;;;;;;5019152;28;20173;-87
2023/02/08 04:08:17;;;;;;;14.90;10.17;;;-1.00;74.70;;;;;;5015067;28;20189;-86
2023/02/08 04:10:44;;;;;;;14.43;11.27;;;-1.10;75.30;;;;;;5030500;28;20247;-87
2023/02/08 04:13:10;;;;;;;14.83;12.27;;;-1.00;76.90;;;;;;5031232;28;20265;-87
2023/02/08 04:15:36;;;;;;;13.07;10.43;;;-0.90;76.60;;;;;;5028666;28;20631;-87
2023/02/08 04:18:01;;;;;;;12.90;11.17;;;-0.90;75.90;;;;;;5028915;28;20177;-88
2023/02/08 04:20:27;;;;;;;14.47;11.60;;;-0.90;74.40;;;;;;5029255;28;20207;-87
2023/02/08 04:22:52;;;;;;;14.07;11.40;;;-0.90;75.20;;;;;;5028861;28;20264;-87
2023/02/08 04:25:18;;;;;;;13.20;11.60;;;-0.90;76.00;;;;;;5027576;28;20340;-87
2023/02/08 04:27:44;;;;;;;15.00;11.43;;;-1.00;73.40;;;;;;5028929;28;20189;-86
2023/02/08 04:30:10;;;;;;;16.73;13.83;;;-1.10;74.00;;;;;;5028461;28;20239;-87
2023/02/08 04:32:36;;;;;;;14.50;11.57;;;-1.20;74.40;;;;;;5027400;28;20223;-87
2023/02/08 04:35:02;;;;;;;13.50;11.40;;;-1.30;74.70;;;;;;5032145;28;20260;-87
2023/02/08 04:37:28;;;;;;;14.97;11.53;;;-1.40;75.70;;;;;;5014256;28;20213;-86
2023/02/08 04:39:53;;;;;;;13.47;10.80;;;-1.40;76.40;;;;;;5012533;28;20193;-86
2023/02/08 04:42:19;;;;;;;19.63;12.40;;;-1.50;76.30;;;;;;5017968;28;20178;-87
2023/02/08 04:44:44;;;;;;;16.03;11.47;;;-1.50;75.80;;;;;;5034554;28;20266;-87
2023/02/08 04:47:10;;;;;;;12.37;10.87;;;-1.60;76.00;;;;;;5034659;28;20200;-86
2023/02/08 04:49:36;;;;;;;12.70;10.20;;;-1.60;76.50;;;;;;5022217;28;20279;-86
2023/02/08 04:52:02;;;;;;;13.93;10.63;;;-1.70;76.90;;;;;;5031275;28;20204;-87
2023/02/08 04:54:27;;;;;;;12.57;10.70;;;-1.70;79.40;;;;;;5034119;28;20718;-86
2023/02/08 04:56:53;;;;;;;13.07;11.37;;;-1.60;77.50;;;;;;5023689;28;20184;-88
2023/02/08 04:59:18;;;;;;;13.70;11.17;;;-1.70;76.90;;;;;;5017028;28;20185;-86
2023/02/08 05:01:44;;;;;;;13.83;11.57;;;-1.70;76.80;;;;;;5033536;28;20280;-86
2023/02/08 05:04:10;;;;;;;15.40;11.00;;;-1.80;77.00;;;;;;5032687;28;20674;-86
2023/02/08 05:06:35;;;;;;;13.37;11.33;;;-1.80;77.70;;;;;;5023804;28;20180;-86
2023/02/08 05:09:02;;;;;;;21.93;13.97;;;-1.70;78.70;;;;;;5016385;28;20648;-86
2023/02/08 05:11:27;;;;;;;12.93;11.53;;;-1.70;76.70;;;;;;5015480;28;20460;-87
2023/02/08 05:13:53;;;;;;;15.37;11.97;;;-1.80;76.50;;;;;;5030300;28;20176;-85
2023/02/08 05:16:19;;;;;;;16.40;12.70;;;-1.70;76.90;;;;;;5028877;28;20732;-87
2023/02/08 05:18:44;;;;;;;15.83;13.87;;;-1.80;76.50;;;;;;5030543;28;20651;-86
2023/02/08 05:21:10;;;;;;;15.53;13.17;;;-1.90;77.50;;;;;;5030144;28;20407;-88
2023/02/08 05:23:37;;;;;;;14.07;10.97;;;-1.90;77.90;;;;;;5038652;28;20223;-86
2023/02/08 05:26:10;;;;;;;16.27;12.33;;;-1.90;77.00;;;;;;5053764;28;20173;-88
2023/02/08 05:28:36;;;;;;;14.83;12.63;;;-1.90;78.10;;;;;;5044153;28;20196;-87
2023/02/08 05:31:13;;;;;;;13.43;12.03;;;-1.80;78.60;;;;;;5009368;28;20259;-85
2023/02/08 05:33:39;;;;;;;16.30;12.67;;;-1.80;77.60;;;;;;5011468;28;20276;-84
2023/02/08 05:36:05;;;;;;;14.43;11.93;;;-1.90;77.90;;;;;;5008665;28;20285;-85
2023/02/08 05:38:31;;;;;;;13.17;11.40;;;-1.80;77.60;;;;;;5009899;28;20188;-85
2023/02/08 05:40:56;;;;;;;14.83;11.07;;;-1.70;79.10;;;;;;5013589;28;20991;-85
2023/02/08 05:43:22;;;;;;;15.40;11.77;;;-1.60;78.50;;;;;;5013160;28;20196;-87
2023/02/08 05:45:49;;;;;;;17.63;12.50;;;-1.60;75.70;;;;;;5011771;28;20690;-84
2023/02/08 05:48:15;;;;;;;13.43;11.57;;;-1.60;75.60;;;;;;5016166;28;20280;-86
2023/02/08 05:50:40;;;;;;;14.40;11.50;;;-1.70;76.90;;;;;;5014256;28;20551;-86
2023/02/08 05:53:06;;;;;;;16.80;12.07;;;-1.70;77.80;;;;;;5014602;28;20197;-87
2023/02/08 05:55:32;;;;;;;12.77;11.10;;;-1.70;76.40;;;;;;5021211;28;20740;-86
2023/02/08 05:57:57;;;;;;;14.43;11.53;;;-1.70;76.10;;;;;;5023780;28;20197;-89
2023/02/08 06:00:23;;;;;;;13.30;10.73;;;-1.80;76.90;;;;;;5020363;28;20223;-86
2023/02/08 06:02:49;;;;;;;14.07;11.20;;;-1.80;77.10;;;;;;5022400;28;20386;-87
2023/02/08 06:05:14;;;;;;;13.20;10.30;;;-1.70;77.60;;;;;;5022741;28;20205;-87
2023/02/08 06:07:40;;;;;;;15.10;12.23;;;-1.70;78.20;;;;;;5021367;28;20206;-91
2023/02/08 06:10:06;;;;;;;14.27;11.23;;;-1.60;77.30;;;;;;5020626;28;20542;-87
2023/02/08 06:12:32;;;;;;;12.83;11.17;;;-1.60;75.60;;;;;;5022816;28;20177;-86
2023/02/08 06:14:57;;;;;;;14.53;10.90;;;-1.60;76.60;;;;;;5020813;28;20217;-88
2023/02/08 06:17:23;;;;;;;13.67;11.60;;;-1.60;74.40;;;;;;5020611;28;20687;-86
2023/02/08 06:19:48;;;;;;;13.40;10.23;;;-1.80;75.00;;;;;;5021839;28;20220;-88
2023/02/08 06:22:14;;;;;;;13.07;11.67;;;-1.80;76.40;;;;;;5021326;28;20228;-89
2023/02/08 06:24:40;;;;;;;13.93;11.50;;;-1.80;76.20;;;;;;5017484;28;20561;-86
2023/02/08 06:27:05;;;;;;;17.50;11.60;;;-1.90;75.20;;;;;;5021729;28;20205;-86
2023/02/08 06:29:31;;;;;;;14.07;10.73;;;-1.90;75.40;;;;;;5021273;28;20192;-88
2023/02/08 06:31:56;;;;;;;15.60;11.37;;;-1.90;76.10;;;;;;5039277;28;20204;-87
2023/02/08 06:34:22;;;;;;;14.93;11.80;;;-1.90;77.60;;;;;;5040637;28;20181;-88
2023/02/08 06:36:48;;;;;;;13.73;11.30;;;-1.90;76.20;;;;;;5026749;28;20182;-88
2023/02/08 06:39:13;;;;;;;17.63;12.27;;;-1.90;76.40;;;;;;5020322;28;20212;-87
2023/02/08 06:41:39;;;;;;;14.07;11.97;;;-1.90;75.50;;;;;;5037954;28;20209;-85
2023/02/08 06:44:05;;;;;;;15.20;12.30;;;-1.90;75.80;;;;;;5019065;28;20189;-86
2023/02/08 06:46:30;;;;;;;17.27;12.47;;;-1.90;76.00;;;;;;5037456;28;20192;-86
2023/02/08 06:48:57;;;;;;;16.07;12.10;;;-1.90;76.00;;;;;;5041001;28;20216;-86
2023/02/08 06:51:23;;;;;;;12.63;11.07;;;-1.90;76.10;;;;;;5039920;28;20231;-86
2023/02/08 06:53:49;;;;;;;19.43;14.63;;;-2.00;76.90;;;;;;5032026;28;20214;-84
2023/02/08 06:56:15;;;;;;;16.60;13.37;;;-2.00;76.60;;;;;;5029687;28;20181;-90
2023/02/08 06:58:41;;;;;;;21.27;13.97;;;-1.90;75.40;;;;;;5043661;28;20252;-90
2023/02/08 07:01:10;;;;;;;21.13;15.07;;;-2.00;75.40;;;;;;5042992;28;20208;-89
2023/02/08 07:03:35;;;;;;;33.73;24.83;;;-2.00;75.70;;;;;;5044751;28;20582;-89
2023/02/08 07:06:01;;;;;;;22.90;18.33;;;-2.10;75.90;;;;;;5031374;28;20201;-89
2023/02/08 07:08:26;;;;;;;16.77;14.43;;;-2.10;75.60;;;;;;5025402;28;20196;-89
2023/02/08 07:10:52;;;;;;;19.53;11.93;;;-2.00;76.70;;;;;;5025156;28;20437;-89
2023/02/08 07:13:18;;;;;;;19.03;12.50;;;-2.00;75.70;;;;;;5025886;28;20177;-89
2023/02/08 07:15:43;;;;;;;13.40;11.43;;;-2.00;75.40;;;;;;5036265;28;20173;-85
2023/02/08 07:18:09;;;;;;;16.27;11.40;;;-2.00;75.80;;;;;;5045129;28;20180;-87
2023/02/08 07:20:35;;;;;;;15.13;12.13;;;-1.90;76.70;;;;;;5042877;28;20215;-85
2023/02/08 07:23:00;;;;;;;13.47;10.63;;;-1.90;75.10;;;;;;5043593;28;20698;-87
2023/02/08 07:25:26;;;;;;;13.80;11.03;;;-2.00;75.70;;;;;;5042707;28;20185;-89
2023/02/08 07:27:51;;;;;;;14.13;11.23;;;-2.00;75.70;;;;;;5044580;28;20177;-90
2023/02/08 07:30:17;;;;;;;15.43;11.97;;;-2.00;75.60;;;;;;5047408;28;20208;-85
2023/02/08 07:32:43;;;;;;;14.83;11.60;;;-1.90;75.60;;;;;;5043631;28;20187;-87
2023/02/08 07:35:08;;;;;;;15.43;11.53;;;-1.90;74.90;;;;;;5043418;28;20173;-88
2023/02/08 07:37:34;;;;;;;16.17;10.80;;;-1.90;74.70;;;;;;5039344;28;20607;-89
2023/02/08 07:40:00;;;;;;;12.77;10.73;;;-1.90;74.70;;;;;;5039228;28;20244;-85
2023/02/08 07:42:25;;;;;;;18.10;12.70;;;-1.90;75.40;;;;;;5044953;28;20201;-86
2023/02/08 07:44:51;;;;;;;19.33;13.00;;;-1.90;75.10;;;;;;5043914;28;20598;-86
2023/02/08 07:47:16;;;;;;;17.50;13.67;;;-1.90;75.40;;;;;;5042739;28;20261;-87
2023/02/08 07:49:42;;;;;;;16.70;13.40;;;-1.90;74.70;;;;;;5044646;28;20288;-85
2023/02/08 07:52:08;;;;;;;22.10;13.90;;;-1.90;75.10;;;;;;5042276;28;20290;-87
2023/02/08 07:54:33;;;;;;;16.00;13.20;;;-1.90;75.40;;;;;;5043597;28;20181;-85
2023/02/08 07:56:59;;;;;;;18.63;14.73;;;-1.90;74.20;;;;;;5031341;28;20186;-89
2023/02/08 07:59:25;;;;;;;17.27;12.37;;;-1.90;75.10;;;;;;5023096;28;20184;-85
2023/02/08 08:01:50;;;;;;;14.23;12.03;;;-1.90;74.50;;;;;;5021173;28;20201;-87
2023/02/08 08:04:16;;;;;;;17.93;12.23;;;-1.90;74.20;;;;;;5020240;28;20170;-88
2023/02/08 08:06:41;;;;;;;18.73;13.10;;;-1.90;75.00;;;;;;5037876;28;20183;-90
2023/02/08 08:09:07;;;;;;;19.83;13.53;;;-1.80;75.00;;;;;;5046942;28;20181;-84
2023/02/08 08:11:33;;;;;;;19.27;14.47;;;-1.80;73.40;;;;;;5046977;28;20209;-89
2023/02/08 08:13:58;;;;;;;14.33;12.57;;;-1.70;73.30;;;;;;5047611;28;20267;-90
2023/02/08 08:16:24;;;;;;;21.53;16.60;;;-1.80;73.00;;;;;;5048625;28;20220;-87
2023/02/08 08:18:49;;;;;;;23.60;17.23;;;-1.80;72.80;;;;;;5048254;28;20256;-87
2023/02/08 08:21:15;;;;;;;17.97;14.90;;;-1.80;73.70;;;;;;5049622;28;20201;-85
2023/02/08 08:23:41;;;;;;;17.80;12.60;;;-1.70;72.80;;;;;;5049688;28;20172;-85
2023/02/08 08:26:19;;;;;;;18.70;13.20;;;-1.60;71.40;;;;;;5049519;28;20263;-90
2023/02/08 08:28:48;;;;;;;20.30;12.03;;;-1.60;72.10;;;;;;5049971;28;20184;-89
2023/02/08 08:31:17;;;;;;;15.77;12.13;;;-1.60;71.60;;;;;;5049170;28;20725;-88
2023/02/08 08:33:43;;;;;;;15.87;12.63;;;-1.50;71.30;;;;;;5045768;28;20217;-87
2023/02/08 08:36:09;;;;;;;16.07;12.03;;;-1.40;71.60;;;;;;5037903;28;20271;-86
2023/02/08 08:38:37;;;;;;;14.37;12.07;;;-1.40;70.40;;;;;;5050171;28;20173;-88
2023/02/08 08:41:10;;;;;;;13.80;11.43;;;-1.30;70.10;;;;;;5050842;28;20371;-86
2023/02/08 08:43:36;;;;;;;12.77;11.13;;;-1.30;68.80;;;;;;5038853;28;20185;-84
2023/02/08 08:46:04;;;;;;;19.87;11.97;;;-1.20;69.40;;;;;;5038475;28;20188;-85
2023/02/08 08:48:29;;;;;;;16.57;12.30;;;-1.10;68.70;;;;;;5038249;28;20172;-86
2023/02/08 08:50:55;;;;;;;15.50;11.27;;;-1.10;68.20;;;;;;5034965;28;20274;-84
2023/02/08 08:53:21;;;;;;;17.93;11.80;;;-1.00;67.10;;;;;;5036709;28;20199;-84
2023/02/08 08:55:47;;;;;;;18.03;11.77;;;-1.00;67.10;;;;;;5034620;28;20667;-85
2023/02/08 08:58:12;;;;;;;14.93;11.77;;;-1.00;67.60;;;;;;5017625;28;20177;-83
2023/02/08 09:00:38;;;;;;;15.40;11.83;;;-0.90;67.20;;;;;;5018068;28;20636;-86
2023/02/08 09:03:04;;;;;;;17.83;12.83;;;-0.80;64.70;;;;;;5033645;28;20649;-84
2023/02/08 09:05:29;;;;;;;16.07;11.50;;;-0.80;65.40;;;;;;5030683;28;20181;-85
2023/02/08 09:07:55;;;;;;;14.20;11.27;;;-0.90;66.10;;;;;;5021845;28;20182;-86
2023/02/08 09:10:21;;;;;;;15.23;11.77;;;-0.80;65.00;;;;;;5025873;28;20308;-87
2023/02/08 09:12:46;;;;;;;15.10;11.73;;;-0.70;65.00;;;;;;5028940;28;20718;-88
2023/02/08 09:15:12;;;;;;;15.57;11.60;;;-0.70;65.60;;;;;;5028716;28;20312;-89
2023/02/08 09:17:38;;;;;;;16.47;12.03;;;-0.60;65.00;;;;;;5042285;28;20598;-87
2023/02/08 09:20:04;;;;;;;17.87;12.00;;;-0.50;64.20;;;;;;5047541;28;20224;-86
2023/02/08 09:22:30;;;;;;;19.33;13.73;;;-0.50;64.00;;;;;;5046664;28;20181;-87
2023/02/08 09:24:56;;;;;;;17.30;13.30;;;-0.40;63.70;;;;;;5049231;28;20177;-85
2023/02/08 09:27:21;;;;;;;12.80;11.30;;;-0.40;63.30;;;;;;5049160;28;20185;-87
2023/02/08 09:29:47;;;;;;;13.63;11.23;;;-0.30;63.40;;;;;;5046082;28;20224;-87
2023/02/08 09:32:13;;;;;;;17.90;12.53;;;-0.30;63.00;;;;;;5047498;28;20250;-84
2023/02/08 09:34:38;;;;;;;14.70;12.50;;;-0.20;62.10;;;;;;5050565;28;20185;-85
2023/02/08 09:37:05;;;;;;;12.43;10.73;;;-0.10;62.60;;;;;;5034618;28;20182;-86
2023/02/08 09:39:31;;;;;;;15.13;11.63;;;0.00;61.40;;;;;;5031370;28;20390;-86
2023/02/08 09:42:27;;;;;;;18.13;12.47;;;0.10;61.60;;;;;;5031466;28;20201;-86
2023/02/08 09:44:52;;;;;;;15.57;11.23;;;0.30;59.20;;;;;;5030236;28;20170;-87
2023/02/08 09:47:33;;;;;;;13.27;11.17;;;0.30;57.80;;;;;;5031118;28;20242;-87
2023/02/08 09:50:23;;;;;;;14.60;11.37;;;0.40;57.10;;;;;;5029848;28;20201;-86
2023/02/08 09:52:59;;;;;;;16.20;12.23;;;0.50;57.60;;;;;;5039741;28;20192;-86
2023/02/08 09:55:48;;;;;;;12.13;10.63;;;0.60;58.40;;;;;;5047202;28;20650;-87
2023/02/08 09:58:21;;;;;;;14.77;11.63;;;0.80;57.50;;;;;;5027691;28;20211;-88
2023/02/08 10:00:49;;;;;;;14.77;10.57;;;1.00;56.70;;;;;;5028338;28;20388;-88
2023/02/08 10:03:32;;;;;;;13.03;11.00;;;1.10;54.30;;;;;;5029069;28;20202;-88
2023/02/08 10:05:58;;;;;;;17.03;11.27;;;1.10;53.10;;;;;;5041091;28;20244;-86
2023/02/08 10:08:25;;;;;;;13.13;11.07;;;1.20;53.80;;;;;;5049427;28;20462;-88
2023/02/08 10:10:53;;;;;;;15.27;10.97;;;1.40;52.80;;;;;;5030551;28;20217;-87
2023/02/08 10:13:35;;;;;;;12.20;10.47;;;1.50;51.10;;;;;;5030262;28;20170;-87
2023/02/08 10:16:35;;;;;;;13.13;10.20;;;1.60;50.70;;;;;;5030407;28;20241;-85
2023/02/08 10:19:25;;;;;;;11.63;9.80;;;2.00;49.30;;;;;;5031249;28;20620;-86
2023/02/08 10:21:57;;;;;;;12.60;10.03;;;2.20;48.70;;;;;;5044042;28;20205;-89
2023/02/08 10:24:25;;;;;;;13.40;10.03;;;2.50;47.10;;;;;;5047473;28;20173;-85
2023/02/08 10:27:15;;;;;;;14.83;11.10;;;2.50;46.80;;;;;;5038861;28;20196;-86
2023/02/08 10:30:16;;;;;;;13.27;11.10;;;2.60;45.80;;;;;;5016084;28;20208;-85
2023/02/08 10:32:47;;;;;;;15.07;10.10;;;2.70;44.70;;;;;;5013638;28;20189;-84
2023/02/08 10:35:40;;;;;;;11.27;10.07;;;2.80;44.20;;;;;;5022858;28;20169;-85
2023/02/08 10:38:24;;;;;;;13.17;10.53;;;3.00;44.00;;;;;;5024199;28;20245;-86
2023/02/08 10:40:57;;;;;;;12.87;10.40;;;3.10;44.30;;;;;;5024818;28;20205;-85
2023/02/08 10:43:36;;;;;;;14.10;10.13;;;3.30;44.70;;;;;;5030751;28;20188;-86
2023/02/08 10:46:29;;;;;;;12.23;9.87;;;3.70;43.60;;;;;;5043890;28;20177;-86
2023/02/08 10:49:12;;;;;;;11.50;10.10;;;3.70;41.80;;;;;;5040262;28;20430;-88
2023/02/08 10:51:38;;;;;;;14.10;10.00;;;3.90;41.60;;;;;;5041566;28;20205;-85
2023/02/08 10:54:04;;;;;;;33.73;12.23;;;4.10;41.70;;;;;;5024210;28;20190;-85
2023/02/08 10:56:29;;;;;;;12.30;8.93;;;4.20;40.40;;;;;;5027595;28;20177;-86
2023/02/08 10:58:58;;;;;;;11.07;8.70;;;4.30;37.90;;;;;;5013607;28;20182;-89
2023/02/08 11:01:25;;;;;;;10.90;8.83;;;4.40;36.60;;;;;;5021361;28;20300;-88
2023/02/08 11:04:09;;;;;;;12.10;8.80;;;4.50;36.00;;;;;;5024667;28;20215;-88
2023/02/08 11:06:35;;;;;;;9.93;8.63;;;4.70;34.80;;;;;;5022067;28;20213;-86
2023/02/08 11:09:01;;;;;;;9.73;8.50;;;4.70;34.40;;;;;;5019616;28;20289;-89
2023/02/08 11:11:33;;;;;;;10.90;9.13;;;4.80;34.40;;;;;;5021942;28;20350;-88
2023/02/08 11:14:16;;;;;;;11.67;9.60;;;4.70;33.90;;;;;;5023790;28;20189;-86
2023/02/08 11:16:52;;;;;;;12.67;8.50;;;4.70;33.60;;;;;;5020964;28;20206;-87
2023/02/08 11:19:35;;;;;;;10.70;8.80;;;4.80;33.90;;;;;;5018243;28;20198;-87
2023/02/08 11:22:04;;;;;;;10.80;8.33;;;4.80;34.20;;;;;;5014267;28;20310;-86
2023/02/08 11:24:40;;;;;;;12.50;10.37;;;4.90;33.70;;;;;;5022779;28;20203;-88
2023/02/08 11:27:29;;;;;;;11.73;9.10;;;5.10;33.60;;;;;;5018980;28;20189;-86
2023/02/08 11:30:13;;;;;;;11.80;10.43;;;5.10;33.00;;;;;;5020618;28;20213;-88
2023/02/08 11:32:44;;;;;;;14.37;10.50;;;5.30;33.90;;;;;;5021037;28;20192;-85
2023/02/08 11:35:28;;;;;;;12.50;10.43;;;5.70;32.90;;;;;;5016977;28;20284;-84
2023/02/08 11:37:58;;;;;;;13.17;10.17;;;5.70;33.70;;;;;;5014957;28;20200;-88
2023/02/08 11:40:31;;;;;;;12.17;10.00;;;6.00;33.00;;;;;;5017025;28;20208;-84
2023/02/08 11:42:57;;;;;;;11.47;9.10;;;6.10;32.50;;;;;;5015738;28;20266;-85
2023/02/08 11:45:29;;;;;;;12.40;10.73;;;6.50;32.50;;;;;;5018661;28;20312;-86
2023/02/08 11:47:56;;;;;;;12.83;9.87;;;6.50;32.60;;;;;;5018831;28;20220;-86
2023/02/08 11:50:34;;;;;;;14.07;10.33;;;6.70;32.10;;;;;;5023396;28;20217;-87
2023/02/08 11:53:03;;;;;;;19.93;11.23;;;6.80;31.70;;;;;;5018851;28;20196;-87
2023/02/08 11:55:31;;;;;;;12.57;9.47;;;6.70;30.70;;;;;;5020040;28;20193;-85
2023/02/08 11:58:03;;;;;;;10.90;9.57;;;6.80;30.80;;;;;;5019644;28;20286;-87
2023/02/08 12:00:34;;;;;;;12.03;9.73;;;6.70;30.70;;;;;;5024644;28;20216;-87
2023/02/08 12:03:21;;;;;;;10.00;9.10;;;6.70;31.00;;;;;;5025056;28;20234;-86
2023/02/08 12:06:05;;;;;;;10.57;9.40;;;6.80;30.50;;;;;;5023937;28;20284;-85
2023/02/08 12:09:06;;;;;;;9.33;8.33;;;6.80;30.20;;;;;;5023594;28;20248;-86
2023/02/08 12:11:39;;;;;;;12.93;9.23;;;6.70;30.50;;;;;;5022501;28;20773;-87
2023/02/08 12:14:26;;;;;;;10.60;8.70;;;6.70;30.90;;;;;;5019267;28;20257;-85
2023/02/08 12:17:45;;;;;;;15.33;8.87;;;6.90;30.20;;;;;;5048524;28;20276;-86
2023/02/08 12:20:16;;;;;;;10.67;9.07;;;7.00;30.70;;;;;;4999399;28;20285;-86
2023/02/08 12:23:00;;;;;;;9.83;8.83;;;7.10;29.80;;;;;;5013860;28;20204;-86
2023/02/08 12:25:51;;;;;;;11.27;9.67;;;6.90;30.70;;;;;;5019649;28;20197;-91
2023/02/08 12:28:44;;;;;;;10.80;9.70;;;7.30;30.40;;;;;;5019371;28;20256;-86
2023/02/08 12:31:25;;;;;;;12.20;9.03;;;7.50;29.80;;;;;;5019477;28;20233;-87
2023/02/08 12:34:17;;;;;;;11.23;9.13;;;7.40;29.80;;;;;;5022508;28;20197;-86
2023/02/08 12:43:23;;;;;;;12.00;9.17;;;7.10;31.20;;;;;;4963223;28;20218;-87
2023/02/08 12:46:26;;;;;;;12.00;9.40;;;7.50;30.80;;;;;;5024673;28;20754;-87
2023/02/08 12:49:06;;;;;;;11.40;9.70;;;7.90;30.00;;;;;;5021139;28;20190;-85
2023/02/08 12:51:43;;;;;;;10.87;9.83;;;8.20;30.00;;;;;;5018935;28;20220;-86
2023/02/08 12:54:20;;;;;;;10.80;9.10;;;8.20;29.80;;;;;;5019873;28;20181;-86
2023/02/08 12:56:48;;;;;;;10.90;9.27;;;8.10;29.70;;;;;;5023571;28;20199;-85